Nearby METAR Reports

 

KOJC - Olathe/Executive, Kansas, USA
Distance from station: S 9mi, 15km
Updated: Sun, 22-Jul-2018 1:53pm CDT
Clear
Clear
 Wind from NNE
Wind: NNE 7 mph , 11 km/h
Temperature: 84°F , 29°C
Heat Index: 85°F , 29°C
Dew Point: 63°F , 17°C
Humidity: 48%
Barometer: 29.98 inHg , 1015.2 hPa
Clouds: Clear
Visibility: 10 miles , 16 km
2018/07/22 18:53 KOJC 221853Z 03006KT 10SM CLR 29/17 A2998 RMK AO2 SLP140 T02940167
KMKC - Kansas City/Dntn, Missouri, USA
Distance from station: NE 12mi, 20km
Updated: Sun, 22-Jul-2018 1:54pm CDT
Clear
Clear
 
Temperature: 90°F , 32°C
Dew Point: 61°F , 16°C
Humidity: 38%
Barometer: 29.96 inHg , 1014.6 hPa
Clouds: Clear
Visibility: 10 miles , 16 km
2018/07/22 18:54 KMKC 221854Z 10SM CLR 32/16 A2996 RMK AO2 SLP135 T03170161
 
KIXD - Olathe/Industria, Kansas, USA
Distance from station: SSW 14mi, 22km
Updated: Sun, 22-Jul-2018 1:53pm CDT
Clear
Clear
 Wind from varies
Wind: varies 6 mph , 9 km/h
Temperature: 88°F , 31°C
Heat Index: 89°F , 32°C
Dew Point: 63°F , 17°C
Humidity: 43%
Barometer: 29.99 inHg , 1015.6 hPa
Clouds: Clear
Visibility: 10 miles , 16 km
2018/07/22 18:53 KIXD 221853Z VRB05KT 10SM CLR 31/17 A2999 RMK AO2 SLP141 T03110167
KLXT - Lees Summit Muni, Missouri, USA
Distance from station: E 21mi, 33km
Updated: Sun, 22-Jul-2018 1:53pm CDT

 
Barometer: 29.98 inHg , 1015.2 hPa
2018/07/22 18:53 KLXT 221853Z AUTO A2998 RMK AO2 SLPNO PWINO $
 
KMCI - Kansas City/Intl, Missouri, USA
Distance from station: N 22mi, 35km
Updated: Sun, 22-Jul-2018 1:53pm CDT
Partly cloudy
Partly cloudy
 Wind from NW
Wind: NW 7 mph , 11 km/h
Temperature: 86°F , 30°C
Heat Index: 87°F , 31°C
Dew Point: 63°F , 17°C
Humidity: 46%
Barometer: 29.99 inHg , 1015.6 hPa
Clouds: Partly cloudy
Visibility: 10 miles , 16 km
Cloud details: Partly cloudy 14000 ft
Partly cloudy 25000 ft
2018/07/22 18:53 KMCI 221853Z 32006KT 10SM SCT140 SCT250 30/17 A2999 RMK AO2 SLP143 T03000172
KLWC - Lawrence, Kansas, USA
Distance from station: W 25mi, 40km
Updated: Sun, 22-Jul-2018 1:52pm CDT
Clear
Clear
 Wind from E
Wind: E 8 mph , 13 km/h
Temperature: 90°F , 32°C
Heat Index: 92°F , 33°C
Dew Point: 64°F , 18°C
Humidity: 43%
Barometer: 29.98 inHg , 1015.2 hPa
Clouds: Clear
Visibility: 10 miles , 16 km
2018/07/22 18:52 KLWC 221852Z AUTO 09007KT 10SM CLR 32/18 A2998 RMK AO2 SLP141 T03170183 $
 
KGPH - Mosby, Missouri, USA
Distance from station: NE 34mi, 54km
Updated: Sun, 22-Jul-2018 2:35pm CDT
Clear
Clear
 Wind from ENE
Wind: ENE 3 mph , 6 km/h
Temperature: 88°F , 31°C
Dew Point: 52°F , 11°C
Humidity: 29%
Barometer: 29.96 inHg , 1014.6 hPa
Clouds: Clear
Visibility: 10 miles , 16 km
2018/07/22 19:35 KGPH 221935Z AUTO 06003KT 10SM CLR 31/11 A2996 RMK AO2
KTOP - Topeka, Kansas, USA
Distance from station: W 48mi, 77km
Updated: Sun, 22-Jul-2018 1:53pm CDT
Clear
Clear
 Wind from SE
Wind: SE 6 mph , 9 km/h
Temperature: 88°F , 31°C
Heat Index: 89°F , 32°C
Dew Point: 63°F , 17°C
Humidity: 43%
Barometer: 29.98 inHg , 1015.2 hPa
Clouds: Clear
Visibility: 10 miles , 16 km
2018/07/22 18:53 KTOP 221853Z 13005KT 10SM CLR 31/17 A2998 RMK AO2 SLP141 T03060167
 
KFOE - Topeka/Forbes, Kansas, USA
Distance from station: W 48mi, 78km
Updated: Sun, 22-Jul-2018 1:53pm CDT
Clear
Clear
 Wind from N
Wind: N 7 mph , 11 km/h
Temperature: 88°F , 31°C
Heat Index: 89°F , 32°C
Dew Point: 63°F , 17°C
Humidity: 43%
Barometer: 29.99 inHg , 1015.6 hPa
Clouds: Clear
Visibility: 10 miles , 16 km
2018/07/22 18:53 KFOE 221853Z 01006KT 10SM CLR 31/17 A2999 RMK AO2 SLP143 T03110167